Pattaya, Thailand

8:27 AM ICT on August 30, 2016 (GMT +0700)
Royal Varuna Yacht Club | | Change Station

Elev 30 ft 12.92 °N, 100.86 °E | Updated 27 minutes ago

Rain
Rain
80.7 °F
Feels Like 88 °F
N
21.9
Wind Variable Wind from SW
Gusts 21.9 mph

Today
High -- | Low -- °F
--% Chance of Precip.
Yesterday
High -- | Low -- °F
Precip. -- in
Pressure 29.80 in
Visibility 3.7 miles
Clouds Few 1800 ft
Scattered Clouds 4000 ft
Mostly Cloudy 10000 ft
Heat Index 88 °F
Dew Point 78 °F
Humidity 91%
Rainfall 0.04 in
Snow Depth Not available.
6:05 AM 6:28 PM
Waning Crescent, 6% visible
METAR VTBU 300100Z 10004KT 6000 FEW018CB SCT040 BKN100 26/24 Q1009 NOSIG
Pressure 29.80 in
Visibility 3.7 miles
Clouds Few 1800 ft
Scattered Clouds 4000 ft
Mostly Cloudy 10000 ft
Heat Index 88 °F
Dew Point 78 °F
Humidity 91%
Rainfall 0.04 in
Snow Depth Not available.
6:05 AM 6:28 PM
Waning Crescent, 6% visible
METAR VTBU 300100Z 10004KT 6000 FEW018CB SCT040 BKN100 26/24 Q1009 NOSIG

10-Day Weather Forecast

No radar image for this location.
×

Almanac

Astronomy

Aug. 30, 2016 Rise Set
Actual Time
Civil Twilight
Nautical Twilight
Astronomical Twilight
Moon
Length of Visible Light
Length of Day
Tomorrow will be .
, % of the Moon is Illuminated

Today's Extremes

Country Highs Country Lows

Community

WunderPhotos

Upload Photos

1,935,709 photos uploaded!

WunderBlog® & News

Nearby

Air Quality

  Air Quality AQ Index Pollutant
Not available.

Snow Depth

Station Depth Elevation

Earthquake Activity

City Distance Mag. Time & Date
Minimum magnitude displayed is 2.5.

Coastal Water Temperatures

Place Temperature

Stations

Nearby Weather Stations

Station Location Temp. Windchill Dew Point Humidity Wind Precip. Elev Updated Type